createdAt,value
2018-03-16T00:00:05.648Z,16.77
2018-03-16T00:01:20.673Z,17.40
2018-03-16T00:02:27.114Z,17.45
2018-03-16T00:03:34.545Z,17.70
2018-03-16T00:04:43.210Z,22.23
2018-03-16T00:05:49.364Z,21.00
2018-03-16T00:06:56.481Z,20.25
2018-03-16T00:08:04.765Z,18.40
2018-03-16T00:09:12.134Z,21.10
2018-03-16T00:10:18.540Z,18.00
2018-03-16T00:11:24.759Z,18.30
2018-03-16T00:12:33.987Z,19.58
2018-03-16T00:13:40.193Z,17.55
2018-03-16T00:14:47.306Z,16.25
2018-03-16T00:15:53.647Z,16.98
2018-03-16T00:17:01.157Z,16.27
2018-03-16T00:18:07.315Z,29.37
2018-03-16T00:19:13.427Z,19.27
2018-03-16T00:20:24.223Z,25.15
2018-03-16T00:21:30.574Z,20.98
2018-03-16T00:22:40.514Z,28.83
2018-03-16T00:23:49.819Z,35.03
2018-03-16T00:24:57.637Z,31.33
2018-03-16T00:26:03.820Z,49.63
2018-03-16T00:27:12.301Z,22.95
2018-03-16T00:28:18.389Z,60.95
2018-03-16T00:29:23.596Z,30.98
2018-03-16T00:30:28.920Z,22.23
2018-03-16T00:31:35.791Z,34.45
2018-03-16T00:32:41.815Z,22.17
2018-03-16T00:33:47.784Z,16.20
2018-03-16T00:34:54.722Z,19.08
2018-03-16T00:36:00.113Z,16.40
2018-03-16T00:37:05.279Z,16.03
2018-03-16T00:38:10.730Z,16.00
2018-03-16T00:39:16.534Z,20.85
2018-03-16T00:40:21.979Z,19.43
2018-03-16T00:41:27.017Z,18.65
2018-03-16T00:42:33.488Z,20.30
2018-03-16T00:43:38.799Z,19.52
2018-03-16T00:44:44.270Z,17.95
2018-03-16T00:45:50.283Z,17.58
2018-03-16T00:46:57.220Z,21.47
2018-03-16T00:48:03.631Z,18.30
2018-03-16T00:49:09.068Z,20.02
2018-03-16T00:50:15.233Z,18.08
2018-03-16T00:53:29.010Z,17.75
2018-03-16T00:54:34.497Z,19.67
2018-03-16T00:55:40.559Z,17.50
2018-03-16T00:56:48.944Z,16.37
2018-03-16T00:57:54.625Z,19.17
2018-03-16T00:58:59.958Z,19.30
2018-03-16T01:00:06.750Z,17.05
2018-03-16T01:01:12.133Z,19.08
2018-03-16T01:02:20.862Z,16.30
2018-03-16T01:03:26.156Z,20.80
2018-03-16T01:04:33.844Z,20.70
2018-03-16T01:05:44.840Z,20.33
2018-03-16T01:06:50.346Z,18.50
2018-03-16T01:07:56.516Z,19.85
2018-03-16T01:09:02.140Z,20.35
2018-03-16T01:10:07.480Z,17.92
2018-03-16T01:11:12.981Z,19.65
2018-03-16T01:12:18.861Z,19.23
2018-03-16T01:13:24.453Z,22.05
2018-03-16T01:14:31.377Z,19.45
2018-03-16T01:15:37.683Z,22.27
2018-03-16T01:16:42.929Z,18.30
2018-03-16T01:17:49.683Z,21.35
2018-03-16T01:18:55.452Z,20.33
2018-03-16T01:20:00.863Z,19.73
2018-03-16T01:21:07.238Z,20.45
2018-03-16T01:22:14.244Z,19.33
2018-03-16T01:23:19.557Z,17.53
2018-03-16T01:24:25.872Z,19.25
2018-03-16T01:25:32.413Z,21.42
2018-03-16T01:26:37.550Z,18.92
2018-03-16T01:27:47.329Z,17.95
2018-03-16T01:28:53.210Z,19.77
2018-03-16T01:29:58.591Z,18.67
2018-03-16T01:31:04.312Z,18.60
2018-03-16T01:32:10.271Z,18.03
2018-03-16T01:33:16.673Z,21.55
2018-03-16T01:34:22.438Z,18.77
2018-03-16T01:35:28.527Z,18.30
2018-03-16T01:36:34.066Z,20.10
2018-03-16T01:37:39.525Z,21.20
2018-03-16T01:38:44.559Z,19.05
2018-03-16T01:39:50.786Z,20.83
2018-03-16T01:41:11.164Z,18.37
2018-03-16T01:42:17.292Z,19.83
2018-03-16T01:43:22.152Z,17.05
2018-03-16T01:44:27.644Z,23.08
2018-03-16T01:46:53.768Z,23.23
2018-03-16T01:47:59.602Z,20.25
2018-03-16T01:49:05.466Z,28.50
2018-03-16T01:50:10.599Z,39.60
2018-03-16T01:51:15.596Z,24.95
2018-03-16T01:52:21.220Z,22.95
2018-03-16T01:53:26.542Z,27.40
2018-03-16T01:54:31.631Z,25.33
2018-03-16T01:55:36.963Z,23.67
2018-03-16T01:56:41.889Z,23.50
2018-03-16T01:57:46.976Z,22.60
2018-03-16T01:58:53.502Z,21.58
2018-03-16T01:59:58.502Z,25.95
2018-03-16T02:01:03.233Z,22.70
2018-03-16T02:02:08.027Z,19.60
2018-03-16T02:03:12.833Z,23.45
2018-03-16T02:04:17.985Z,23.03
2018-03-16T02:05:22.986Z,25.03
2018-03-16T02:06:28.041Z,23.73
2018-03-16T02:07:32.608Z,21.35
2018-03-16T02:08:37.159Z,24.80
2018-03-16T02:09:42.407Z,25.67
2018-03-16T02:10:47.298Z,22.17
2018-03-16T02:11:53.878Z,21.30
2018-03-16T02:12:59.514Z,21.30
2018-03-16T02:14:04.614Z,22.77
2018-03-16T02:15:09.698Z,23.12
2018-03-16T02:16:15.160Z,24.00
2018-03-16T02:17:19.530Z,25.50
2018-03-16T02:18:23.950Z,26.00
2018-03-16T02:19:28.402Z,22.87
2018-03-16T02:20:33.272Z,25.00
2018-03-16T02:21:38.391Z,24.45
2018-03-16T02:22:42.799Z,24.17
2018-03-16T02:23:47.306Z,24.45
2018-03-16T02:24:59.994Z,25.95
2018-03-16T02:26:06.630Z,26.73
2018-03-16T02:27:11.186Z,25.48
2018-03-16T02:28:18.801Z,24.40
2018-03-16T02:29:23.986Z,25.50
2018-03-16T02:30:28.584Z,20.77
2018-03-16T02:31:33.205Z,28.87
2018-03-16T02:32:37.547Z,23.25
2018-03-16T02:33:42.175Z,24.20
2018-03-16T02:34:48.330Z,24.45
2018-03-16T02:35:55.242Z,27.52
2018-03-16T02:36:59.674Z,28.00
2018-03-16T02:38:04.122Z,29.60
2018-03-16T02:39:09.194Z,28.30
2018-03-16T02:40:14.872Z,23.15
2018-03-16T02:41:20.091Z,25.17
2018-03-16T02:42:25.049Z,24.87
2018-03-16T02:43:29.553Z,24.87
2018-03-16T02:44:33.860Z,23.25
2018-03-16T02:45:39.110Z,23.73
2018-03-16T02:46:43.403Z,23.50
2018-03-16T02:47:48.783Z,23.85
2018-03-16T02:48:54.230Z,23.13
2018-03-16T02:49:58.429Z,24.20
2018-03-16T02:51:04.905Z,22.30
2018-03-16T02:52:10.224Z,21.37
2018-03-16T02:53:15.027Z,21.80
2018-03-16T02:54:19.354Z,25.98
2018-03-16T02:55:24.537Z,90.25
2018-03-16T02:56:28.850Z,33.08
2018-03-16T02:57:36.640Z,42.07
2018-03-16T02:58:41.791Z,28.38
2018-03-16T02:59:46.075Z,31.05
2018-03-16T03:00:50.468Z,40.80
2018-03-16T03:01:55.510Z,84.10
2018-03-16T03:03:00.212Z,44.85
2018-03-16T03:04:05.000Z,30.10
2018-03-16T03:05:10.243Z,26.25
2018-03-16T03:06:15.001Z,27.45
2018-03-16T03:07:19.333Z,26.65
2018-03-16T03:08:23.769Z,25.12
2018-03-16T03:09:28.851Z,25.62
2018-03-16T03:10:33.536Z,78.10
2018-03-16T03:11:38.419Z,76.80
2018-03-16T03:12:43.547Z,42.58
2018-03-16T03:13:48.931Z,30.92
2018-03-16T03:14:54.921Z,27.17
2018-03-16T03:15:59.991Z,26.70
2018-03-16T03:17:04.438Z,27.50
2018-03-16T03:18:08.997Z,25.75
2018-03-16T03:19:13.377Z,27.02
2018-03-16T03:20:18.627Z,30.13
2018-03-16T03:21:26.974Z,31.08
2018-03-16T03:22:31.468Z,27.25
2018-03-16T03:23:37.221Z,34.92
2018-03-16T03:24:41.607Z,46.70
2018-03-16T03:25:45.953Z,31.65
2018-03-16T03:26:50.481Z,27.95
2018-03-16T03:27:55.632Z,25.92
2018-03-16T03:29:01.068Z,30.27
2018-03-16T03:30:05.825Z,28.12
2018-03-16T03:31:11.015Z,29.73
2018-03-16T03:32:15.319Z,28.50
2018-03-16T03:33:20.178Z,28.77
2018-03-16T03:34:24.936Z,26.60
2018-03-16T03:35:29.305Z,26.37
2018-03-16T03:36:34.014Z,31.02
2018-03-16T03:37:38.982Z,29.63
2018-03-16T03:38:44.174Z,27.52
2018-03-16T03:39:48.977Z,31.00
2018-03-16T03:40:54.089Z,27.55
2018-03-16T03:41:58.654Z,26.98
2018-03-16T03:43:04.003Z,27.00
2018-03-16T03:44:09.283Z,30.40
2018-03-16T03:45:13.897Z,29.37
2018-03-16T03:46:18.313Z,34.25
2018-03-16T03:47:23.196Z,30.85
2018-03-16T03:48:27.630Z,27.75
2018-03-16T03:49:32.713Z,26.90
2018-03-16T03:50:37.421Z,26.77
2018-03-16T03:51:42.161Z,26.80
2018-03-16T03:52:47.156Z,31.17
2018-03-16T03:53:52.228Z,34.10
2018-03-16T03:54:57.160Z,28.40
2018-03-16T03:56:01.801Z,30.20
2018-03-16T03:57:06.872Z,27.00
2018-03-16T03:58:11.991Z,31.30
2018-03-16T03:59:17.788Z,26.10
2018-03-16T04:00:22.670Z,28.58
2018-03-16T04:01:27.109Z,31.40
2018-03-16T04:02:31.419Z,34.07
2018-03-16T04:03:35.724Z,31.02
2018-03-16T04:04:40.146Z,29.20
2018-03-16T04:05:45.488Z,32.25
2018-03-16T04:06:53.182Z,33.47
2018-03-16T04:07:59.978Z,36.25
2018-03-16T04:09:06.032Z,31.48
2018-03-16T04:10:11.119Z,31.73
2018-03-16T04:11:15.773Z,33.17
2018-03-16T04:12:23.941Z,32.50
2018-03-16T04:13:29.412Z,31.30
2018-03-16T04:14:33.809Z,29.58
2018-03-16T04:15:38.382Z,28.92
2018-03-16T04:16:42.707Z,30.67
2018-03-16T04:17:47.810Z,30.12
2018-03-16T04:18:52.242Z,28.87
2018-03-16T04:19:59.256Z,29.00
2018-03-16T04:21:03.740Z,36.50
2018-03-16T04:22:08.847Z,34.15
2018-03-16T04:23:13.587Z,31.42
2018-03-16T04:24:18.045Z,30.02
2018-03-16T04:25:22.686Z,28.30
2018-03-16T04:26:27.285Z,32.60
2018-03-16T04:27:31.685Z,34.03
2018-03-16T04:28:36.198Z,32.60
2018-03-16T04:29:40.632Z,31.33
2018-03-16T04:30:45.101Z,33.95
2018-03-16T04:31:49.650Z,34.10
2018-03-16T04:32:54.773Z,36.57
2018-03-16T04:33:59.277Z,35.73
2018-03-16T04:35:04.014Z,33.75
2018-03-16T04:36:10.927Z,30.93
2018-03-16T04:37:15.458Z,34.47
2018-03-16T04:38:20.658Z,34.97
2018-03-16T04:39:30.915Z,35.80
2018-03-16T04:40:35.675Z,36.78
2018-03-16T04:41:40.098Z,38.13
2018-03-16T04:42:45.105Z,36.47
2018-03-16T04:43:49.362Z,32.88
2018-03-16T04:44:54.551Z,38.88
2018-03-16T04:45:59.670Z,33.78
2018-03-16T04:47:05.187Z,35.95
2018-03-16T04:48:10.051Z,34.45
2018-03-16T04:49:15.028Z,37.13
2018-03-16T04:50:19.896Z,31.95
2018-03-16T04:51:24.466Z,33.10
2018-03-16T04:52:29.131Z,32.85
2018-03-16T04:53:40.031Z,34.57
2018-03-16T04:54:44.362Z,31.33
2018-03-16T04:55:49.600Z,38.05
2018-03-16T04:56:55.893Z,36.50
2018-03-16T04:58:00.375Z,32.95
2018-03-16T04:59:06.294Z,36.97
2018-03-16T05:00:10.906Z,31.77
2018-03-16T05:01:15.544Z,31.30
2018-03-16T05:02:21.235Z,32.80
2018-03-16T05:03:25.617Z,39.58
2018-03-16T05:04:30.036Z,31.70
2018-03-16T05:05:34.821Z,34.95
2018-03-16T05:06:40.079Z,33.28
2018-03-16T05:07:44.863Z,34.63
2018-03-16T05:08:50.501Z,36.77
2018-03-16T05:09:56.234Z,39.72
2018-03-16T05:11:01.493Z,38.47
2018-03-16T05:12:06.276Z,34.80
2018-03-16T05:13:11.298Z,33.83
2018-03-16T05:14:15.817Z,34.00
2018-03-16T05:15:20.562Z,33.08
2018-03-16T05:16:25.053Z,36.60
2018-03-16T05:17:30.358Z,34.03
2018-03-16T05:18:36.612Z,32.58
2018-03-16T05:19:41.318Z,35.50
2018-03-16T05:20:47.336Z,36.30
2018-03-16T05:21:51.770Z,33.45
2018-03-16T05:22:56.990Z,33.50
2018-03-16T05:24:01.851Z,34.65
2018-03-16T05:25:08.288Z,33.50
2018-03-16T05:26:18.291Z,37.10
2018-03-16T05:27:23.622Z,33.55
2018-03-16T05:28:28.461Z,37.58
2018-03-16T05:29:33.998Z,32.83
2018-03-16T05:30:38.985Z,35.03
2018-03-16T05:31:44.722Z,34.85
2018-03-16T05:32:49.198Z,36.60
2018-03-16T05:33:54.954Z,34.55
2018-03-16T05:35:00.198Z,34.73
2018-03-16T05:36:05.093Z,34.00
2018-03-16T05:37:10.528Z,33.87
2018-03-16T05:38:15.269Z,37.72
2018-03-16T05:39:22.619Z,33.70
2018-03-16T05:40:31.809Z,36.08
2018-03-16T05:41:37.358Z,34.40
2018-03-16T05:42:42.615Z,35.63
2018-03-16T05:43:49.949Z,38.58
2018-03-16T05:44:56.947Z,32.70
2018-03-16T05:46:05.499Z,38.20
2018-03-16T05:47:11.100Z,38.72
2018-03-16T05:48:17.374Z,34.42
2018-03-16T05:49:23.531Z,37.63
2018-03-16T05:50:28.593Z,37.80
2018-03-16T05:51:33.955Z,33.03
2018-03-16T05:52:39.350Z,36.07
2018-03-16T05:53:45.832Z,37.03
2018-03-16T05:54:51.730Z,35.25
2018-03-16T05:55:59.361Z,39.05
2018-03-16T05:57:04.703Z,34.73
2018-03-16T05:58:10.034Z,36.58
2018-03-16T05:59:15.607Z,38.15
2018-03-16T06:00:22.591Z,35.53
2018-03-16T06:01:27.729Z,37.35
2018-03-16T06:02:33.171Z,34.20
2018-03-16T06:03:43.813Z,35.60
2018-03-16T06:04:49.249Z,37.08
2018-03-16T06:05:54.678Z,41.17
2018-03-16T06:07:00.683Z,38.65
2018-03-16T06:08:06.733Z,37.73
2018-03-16T06:09:12.586Z,40.78
2018-03-16T06:10:18.871Z,42.92
2018-03-16T06:11:24.683Z,39.92
2018-03-16T06:12:30.984Z,40.70
2018-03-16T06:13:36.912Z,38.90
2018-03-16T06:14:42.194Z,46.50
2018-03-16T06:15:47.818Z,45.28
2018-03-16T06:16:54.095Z,40.42
2018-03-16T06:18:00.154Z,42.42
2018-03-16T06:19:05.543Z,45.63
2018-03-16T06:20:10.951Z,41.42
2018-03-16T06:21:16.844Z,39.13
2018-03-16T06:22:22.633Z,46.70
2018-03-16T06:23:28.205Z,47.97
2018-03-16T06:24:33.505Z,40.50
2018-03-16T06:25:39.123Z,42.62
2018-03-16T06:26:47.044Z,42.38
2018-03-16T06:27:52.333Z,37.97
2018-03-16T06:28:58.377Z,45.60
2018-03-16T06:30:04.847Z,39.90
2018-03-16T06:31:10.869Z,39.30
2018-03-16T06:32:17.010Z,41.28
2018-03-16T06:33:23.558Z,40.12
2018-03-16T06:34:28.974Z,43.50
2018-03-16T06:35:35.526Z,40.85
2018-03-16T06:36:41.974Z,41.60
2018-03-16T06:37:48.345Z,36.58
2018-03-16T06:39:57.041Z,42.20
2018-03-16T06:41:03.866Z,37.17
2018-03-16T06:42:15.597Z,40.42
2018-03-16T06:43:21.279Z,43.13
2018-03-16T06:44:26.517Z,43.85
2018-03-16T06:45:32.536Z,38.45
2018-03-16T06:46:37.751Z,41.05
2018-03-16T06:47:42.990Z,41.55
2018-03-16T06:48:49.148Z,41.83
2018-03-16T06:49:54.732Z,42.17
2018-03-16T06:51:00.014Z,37.95
2018-03-16T06:52:04.974Z,39.78
2018-03-16T06:53:10.877Z,39.50
2018-03-16T06:54:21.509Z,40.72
2018-03-16T06:55:26.985Z,37.88
2018-03-16T06:56:32.377Z,36.53
2018-03-16T06:57:37.847Z,37.28
2018-03-16T06:58:44.280Z,36.05
2018-03-16T06:59:50.114Z,38.78
2018-03-16T07:00:58.485Z,37.38
2018-03-16T07:02:04.099Z,39.95
2018-03-16T07:03:09.864Z,34.37
2018-03-16T07:04:15.359Z,37.53
2018-03-16T07:05:21.290Z,36.53
2018-03-16T07:06:27.134Z,38.50
2018-03-16T07:07:39.334Z,36.42
2018-03-16T07:08:46.149Z,36.22
2018-03-16T07:09:53.352Z,40.95
2018-03-16T07:10:58.942Z,37.90
2018-03-16T07:12:06.733Z,37.90
2018-03-16T07:13:12.193Z,42.95
2018-03-16T07:14:17.523Z,49.38
2018-03-16T07:15:36.873Z,44.07
2018-03-16T07:16:43.603Z,42.22
2018-03-16T07:17:51.457Z,39.60
2018-03-16T07:18:57.520Z,38.65
2018-03-16T07:20:03.152Z,37.35
2018-03-16T07:21:09.968Z,38.53
2018-03-16T07:22:16.859Z,36.08
2018-03-16T07:23:23.008Z,36.75
2018-03-16T07:24:28.927Z,35.83
2018-03-16T07:25:34.265Z,36.17
2018-03-16T07:26:40.215Z,40.22
2018-03-16T07:27:46.459Z,36.47
2018-03-16T07:28:52.442Z,37.95
2018-03-16T07:29:58.772Z,39.92
2018-03-16T07:31:04.053Z,40.92
2018-03-16T07:32:09.265Z,34.33
2018-03-16T07:33:14.564Z,39.22
2018-03-16T07:34:20.077Z,36.92
2018-03-16T07:35:27.799Z,35.97
2018-03-16T07:36:33.104Z,41.75
2018-03-16T07:37:47.747Z,37.60
2018-03-16T07:38:53.906Z,36.22
2018-03-16T07:39:59.133Z,35.63
2018-03-16T07:41:04.249Z,35.53
2018-03-16T07:42:09.368Z,37.30
2018-03-16T07:43:15.259Z,36.78
2018-03-16T07:44:20.224Z,39.88
2018-03-16T07:45:30.457Z,39.80
2018-03-16T07:46:36.583Z,40.20
2018-03-16T07:47:43.165Z,39.80
2018-03-16T07:48:48.339Z,38.55
2018-03-16T07:49:54.457Z,37.72
2018-03-16T07:51:00.536Z,38.95
2018-03-16T07:52:05.589Z,38.78
2018-03-16T07:53:10.582Z,43.72
2018-03-16T07:54:15.559Z,37.33
2018-03-16T07:55:21.013Z,36.70
2018-03-16T07:56:29.524Z,39.38
2018-03-16T07:57:38.199Z,39.83
2018-03-16T07:58:44.058Z,37.80
2018-03-16T07:59:51.405Z,36.92
2018-03-16T08:00:57.674Z,38.38
2018-03-16T08:02:02.798Z,37.53
2018-03-16T08:03:07.907Z,35.88
2018-03-16T08:04:12.910Z,48.53
2018-03-16T08:05:19.014Z,39.05
2018-03-16T08:06:24.595Z,36.45
2018-03-16T08:07:45.441Z,37.10
2018-03-16T08:08:51.696Z,37.30
2018-03-16T08:11:15.056Z,38.03
2018-03-16T08:12:20.418Z,36.00
2018-03-16T08:13:25.351Z,33.40
2018-03-16T08:14:32.392Z,33.17
2018-03-16T08:15:38.779Z,34.35
2018-03-16T08:16:44.492Z,36.20
2018-03-16T08:17:50.309Z,36.78
2018-03-16T08:18:56.464Z,36.65
2018-03-16T08:20:02.199Z,35.13
2018-03-16T08:21:07.177Z,33.65
2018-03-16T08:22:12.217Z,34.47
2018-03-16T08:23:17.112Z,39.22
2018-03-16T08:24:22.612Z,33.45
2018-03-16T08:25:28.163Z,37.97
2018-03-16T08:26:33.881Z,38.55
2018-03-16T08:27:39.028Z,36.40
2018-03-16T08:28:44.419Z,35.88
2018-03-16T08:29:49.571Z,37.45
2018-03-16T08:31:03.161Z,35.42
2018-03-16T08:32:09.017Z,38.72
2018-03-16T08:33:13.818Z,36.97
2018-03-16T08:34:19.390Z,34.17
2018-03-16T08:35:24.336Z,40.88
2018-03-16T08:36:32.468Z,37.58
2018-03-16T08:37:37.629Z,37.60
2018-03-16T08:38:42.900Z,35.63
2018-03-16T08:39:47.617Z,34.60
2018-03-16T08:40:53.611Z,32.85
2018-03-16T08:41:58.432Z,46.15
2018-03-16T08:43:03.555Z,38.45
2018-03-16T08:44:08.721Z,42.10
2018-03-16T08:45:26.509Z,34.95
2018-03-16T08:46:31.434Z,36.80
2018-03-16T08:47:39.232Z,36.07
2018-03-16T08:48:44.057Z,36.13
2018-03-16T08:49:48.985Z,40.08
2018-03-16T08:50:54.605Z,38.33
2018-03-16T08:51:59.722Z,37.80
2018-03-16T08:53:04.446Z,40.53
2018-03-16T08:54:09.349Z,37.22
2018-03-16T08:55:14.180Z,36.60
2018-03-16T08:56:19.071Z,41.72
2018-03-16T08:57:23.891Z,40.90
2018-03-16T08:58:35.675Z,44.60
2018-03-16T08:59:41.450Z,41.42
2018-03-16T09:00:46.260Z,36.05
2018-03-16T09:01:51.177Z,41.88
2018-03-16T09:02:56.422Z,41.47
2018-03-16T09:04:01.295Z,39.35
2018-03-16T09:05:06.120Z,34.30
2018-03-16T09:06:11.088Z,35.25
2018-03-16T09:07:16.337Z,34.08
2018-03-16T09:08:22.234Z,36.20
2018-03-16T09:09:27.202Z,36.88
2018-03-16T09:10:32.966Z,35.07
2018-03-16T09:11:37.808Z,38.70
2018-03-16T09:12:43.458Z,37.13
2018-03-16T09:14:19.329Z,33.78
2018-03-16T09:15:24.192Z,40.28
2018-03-16T09:16:29.060Z,36.65
2018-03-16T09:17:33.736Z,41.00
2018-03-16T09:18:38.934Z,40.53
2018-03-16T09:19:46.247Z,42.78
2018-03-16T09:20:53.273Z,38.30
2018-03-16T09:22:00.067Z,40.42
2018-03-16T09:23:05.493Z,37.72
2018-03-16T09:24:12.147Z,36.90
2018-03-16T09:25:18.938Z,40.30
2018-03-16T09:26:25.185Z,37.30
2018-03-16T09:27:30.444Z,37.10
2018-03-16T09:28:36.313Z,35.85
2018-03-16T09:29:43.386Z,38.80
2018-03-16T09:30:55.267Z,40.72
2018-03-16T09:32:03.374Z,41.13
2018-03-16T09:33:09.012Z,41.95
2018-03-16T09:34:15.398Z,45.00
2018-03-16T09:35:20.730Z,37.40
2018-03-16T09:36:26.741Z,37.03
2018-03-16T09:37:34.362Z,35.75
2018-03-16T09:38:40.262Z,41.13
2018-03-16T09:39:46.677Z,41.53
2018-03-16T09:40:53.195Z,37.00
2018-03-16T09:41:59.606Z,36.10
2018-03-16T09:43:06.869Z,40.55
2018-03-16T09:44:15.867Z,43.95
2018-03-16T09:45:21.207Z,43.47
2018-03-16T09:46:28.074Z,39.53
2018-03-16T09:47:35.692Z,37.75
2018-03-16T09:48:40.732Z,37.63
2018-03-16T09:49:47.984Z,42.92
2018-03-16T09:50:53.997Z,43.23
2018-03-16T09:52:00.350Z,40.85
2018-03-16T09:53:07.704Z,36.63
2018-03-16T09:54:14.223Z,43.60
2018-03-16T09:55:32.083Z,37.35
2018-03-16T09:56:37.744Z,39.88
2018-03-16T09:57:43.794Z,42.55
2018-03-16T09:58:50.956Z,40.80
2018-03-16T09:59:58.196Z,41.22
2018-03-16T10:01:03.621Z,45.03
2018-03-16T10:02:08.449Z,38.83
2018-03-16T10:03:13.426Z,97.10
2018-03-16T10:04:18.339Z,71.87
2018-03-16T10:05:23.986Z,42.50
2018-03-16T10:06:31.539Z,38.25
2018-03-16T10:07:36.604Z,44.72
2018-03-16T10:08:41.386Z,36.67
2018-03-16T10:09:48.494Z,37.75
2018-03-16T10:10:53.206Z,39.00
2018-03-16T10:11:58.019Z,36.75
2018-03-16T10:13:02.857Z,124.55
2018-03-16T10:14:07.740Z,53.57
2018-03-16T10:15:13.285Z,38.10
2018-03-16T10:16:18.747Z,39.90
2018-03-16T10:17:23.620Z,41.78
2018-03-16T10:18:28.580Z,41.72
2018-03-16T10:19:33.319Z,41.35
2018-03-16T10:20:37.985Z,42.85
2018-03-16T10:21:43.824Z,45.05
2018-03-16T10:22:48.885Z,38.87
2018-03-16T10:23:53.599Z,40.95
2018-03-16T10:24:59.003Z,37.88
2018-03-16T10:26:04.640Z,38.22
2018-03-16T10:27:10.627Z,42.10
2018-03-16T10:28:15.561Z,39.70
2018-03-16T10:29:21.231Z,38.33
2018-03-16T10:30:26.827Z,39.85
2018-03-16T10:31:31.895Z,38.35
2018-03-16T10:32:36.508Z,35.45
2018-03-16T10:33:41.175Z,39.45
2018-03-16T10:34:45.761Z,37.63
2018-03-16T10:35:51.288Z,35.25
2018-03-16T10:36:56.844Z,41.05
2018-03-16T10:38:01.728Z,42.57
2018-03-16T10:39:07.538Z,43.85
2018-03-16T10:40:12.292Z,38.58
2018-03-16T10:41:17.743Z,39.93
2018-03-16T10:42:23.290Z,42.88
2018-03-16T10:43:28.237Z,40.92
2018-03-16T10:44:32.794Z,41.40
2018-03-16T10:45:38.287Z,44.50
2018-03-16T10:46:43.037Z,36.63
2018-03-16T10:47:47.878Z,37.83
2018-03-16T10:48:53.395Z,43.20
2018-03-16T10:49:58.195Z,39.70
2018-03-16T10:51:03.120Z,40.65
2018-03-16T10:52:09.440Z,35.95
2018-03-16T10:53:14.194Z,36.15
2018-03-16T10:54:18.996Z,35.22
2018-03-16T10:55:23.649Z,38.83
2018-03-16T10:56:28.785Z,37.00
2018-03-16T10:57:38.275Z,34.15
2018-03-16T10:58:43.079Z,38.97
2018-03-16T10:59:47.966Z,39.88
2018-03-16T11:00:57.203Z,35.03
2018-03-16T11:02:07.619Z,35.78
2018-03-16T11:03:15.542Z,36.85
2018-03-16T11:04:24.322Z,37.40
2018-03-16T11:05:30.114Z,45.70
2018-03-16T11:06:35.984Z,236.95
2018-03-16T11:07:44.218Z,73.20
2018-03-16T11:08:49.175Z,41.22
2018-03-16T11:09:53.960Z,37.83
2018-03-16T11:11:00.109Z,36.47
2018-03-16T11:12:06.933Z,34.70
2018-03-16T11:13:11.712Z,36.50
2018-03-16T11:14:16.403Z,38.25
2018-03-16T11:15:21.952Z,32.50
2018-03-16T11:16:26.889Z,35.75
2018-03-16T11:17:31.613Z,33.90
2018-03-16T11:18:36.805Z,36.05
2018-03-16T11:19:42.385Z,38.58
2018-03-16T11:20:47.077Z,35.20
2018-03-16T11:21:52.942Z,37.55
2018-03-16T11:22:57.786Z,38.47
2018-03-16T11:24:02.865Z,34.60
2018-03-16T11:25:07.903Z,35.90
2018-03-16T11:26:12.600Z,49.70
2018-03-16T11:27:17.329Z,88.87
2018-03-16T11:28:22.486Z,65.53
2018-03-16T11:29:28.280Z,41.93
2018-03-16T11:30:33.201Z,40.55
2018-03-16T11:31:38.150Z,37.38
2018-03-16T11:32:43.375Z,40.38
2018-03-16T11:33:49.506Z,33.30
2018-03-16T11:34:58.443Z,36.80
2018-03-16T11:36:04.213Z,33.45
2018-03-16T11:37:09.163Z,38.35
2018-03-16T11:38:14.792Z,35.95
2018-03-16T11:39:19.622Z,35.25
2018-03-16T11:40:24.677Z,38.25
2018-03-16T11:41:29.312Z,34.40
2018-03-16T11:42:34.196Z,34.28
2018-03-16T11:43:39.044Z,36.03
2018-03-16T11:44:43.834Z,35.97
2018-03-16T11:45:49.669Z,31.37
2018-03-16T11:46:57.910Z,28.10
2018-03-16T11:48:02.506Z,33.72
2018-03-16T11:49:12.707Z,34.55
2018-03-16T11:50:18.607Z,35.60
2018-03-16T11:51:23.402Z,33.70
2018-03-16T11:52:28.150Z,34.10
2018-03-16T11:53:32.977Z,29.17
2018-03-16T11:54:37.706Z,28.48
2018-03-16T11:55:42.536Z,26.90
2018-03-16T11:56:47.721Z,27.52
2018-03-16T11:57:53.844Z,28.62
2018-03-16T11:59:00.644Z,29.27
2018-03-16T12:00:05.711Z,27.08
2018-03-16T12:01:10.521Z,38.72
2018-03-16T12:02:16.706Z,30.25
2018-03-16T12:03:21.327Z,36.50
2018-03-16T12:04:26.771Z,31.15
2018-03-16T12:05:31.469Z,30.95
2018-03-16T12:06:37.123Z,28.23
2018-03-16T12:07:41.887Z,30.73
2018-03-16T12:08:47.476Z,36.38
2018-03-16T12:09:53.976Z,26.15
2018-03-16T12:10:58.987Z,28.48
2018-03-16T12:12:03.777Z,29.63
2018-03-16T12:13:23.135Z,26.92
2018-03-16T12:14:28.142Z,34.03
2018-03-16T12:15:33.671Z,26.08
2018-03-16T12:16:39.113Z,28.07
2018-03-16T12:17:44.597Z,29.63
2018-03-16T12:18:50.319Z,33.45
2018-03-16T12:19:56.091Z,28.40
2018-03-16T12:21:00.768Z,26.42
2018-03-16T12:22:07.436Z,28.90
2018-03-16T12:23:12.159Z,26.13
2018-03-16T12:24:17.761Z,28.08
2018-03-16T12:25:23.176Z,24.67
2018-03-16T12:26:29.057Z,22.27
2018-03-16T12:27:34.037Z,21.10
2018-03-16T12:28:49.695Z,22.98
2018-03-16T12:29:44.772Z,21.00
2018-03-16T12:30:49.565Z,18.62
2018-03-16T12:31:55.906Z,17.50
2018-03-16T12:33:04.145Z,17.75
2018-03-16T12:34:11.035Z,18.52
2018-03-16T12:35:16.600Z,16.10
2018-03-16T12:36:22.869Z,18.55
2018-03-16T12:37:27.768Z,16.98
2018-03-16T12:38:33.463Z,15.10
2018-03-16T12:39:38.603Z,14.82
2018-03-16T12:40:44.434Z,14.40
2018-03-16T12:41:49.158Z,18.27
2018-03-16T12:42:53.890Z,16.30
2018-03-16T12:43:58.646Z,15.95
2018-03-16T12:45:03.501Z,18.20
2018-03-16T12:46:08.319Z,19.15
2018-03-16T12:47:13.119Z,17.05
2018-03-16T12:48:17.839Z,13.98
2018-03-16T12:49:22.641Z,15.15
2018-03-16T12:50:27.667Z,19.70
2018-03-16T12:51:42.007Z,14.15
2018-03-16T12:52:38.764Z,13.62
2018-03-16T12:53:43.564Z,12.45
2018-03-16T12:54:48.277Z,12.93
2018-03-16T12:55:53.119Z,15.88
2018-03-16T12:56:58.205Z,17.25
2018-03-16T12:58:03.508Z,19.63
2018-03-16T12:59:09.172Z,15.80
2018-03-16T13:00:14.092Z,13.90
2018-03-16T13:01:19.091Z,13.15
2018-03-16T13:02:25.304Z,16.05
2018-03-16T13:03:30.396Z,14.50
2018-03-16T13:04:35.083Z,16.27
2018-03-16T13:05:40.919Z,17.10
2018-03-16T13:06:48.279Z,16.45
2018-03-16T13:07:56.000Z,20.25
2018-03-16T13:09:01.257Z,16.62
2018-03-16T13:10:06.390Z,18.40
2018-03-16T13:11:11.136Z,15.52
2018-03-16T13:12:16.428Z,19.30
2018-03-16T13:13:22.793Z,16.52
2018-03-16T13:14:27.893Z,16.95
2018-03-16T13:15:33.390Z,17.33
2018-03-16T13:16:38.099Z,16.45
2018-03-16T13:17:42.774Z,16.73
2018-03-16T13:18:47.514Z,16.58
2018-03-16T13:19:54.380Z,15.90
2018-03-16T13:20:59.067Z,16.00
2018-03-16T13:22:03.955Z,18.55
2018-03-16T13:23:09.503Z,17.62
2018-03-16T13:24:15.210Z,15.80
2018-03-16T13:25:20.013Z,18.58
2018-03-16T13:26:24.975Z,22.67
2018-03-16T13:27:29.762Z,23.60
2018-03-16T13:28:34.579Z,20.77
2018-03-16T13:29:40.754Z,25.17
2018-03-16T13:30:46.313Z,24.10
2018-03-16T13:31:51.813Z,23.08
2018-03-16T13:32:58.118Z,26.83
2018-03-16T13:34:03.173Z,28.23
2018-03-16T13:35:07.875Z,26.17
2018-03-16T13:36:12.913Z,26.10
2018-03-16T13:37:17.687Z,27.83
2018-03-16T13:38:23.071Z,24.87
2018-03-16T13:39:31.027Z,28.58
2018-03-16T13:40:35.794Z,34.37
2018-03-16T13:41:40.620Z,29.12
2018-03-16T13:42:45.676Z,29.30
2018-03-16T13:43:50.373Z,30.23
2018-03-16T13:44:55.181Z,26.70
2018-03-16T13:45:59.963Z,31.58
2018-03-16T13:47:05.174Z,30.17
2018-03-16T13:48:10.472Z,30.50
2018-03-16T13:49:15.392Z,34.75
2018-03-16T13:50:21.695Z,42.97
2018-03-16T13:51:26.880Z,45.85
2018-03-16T13:52:41.649Z,51.65
2018-03-16T13:53:46.543Z,52.80
2018-03-16T13:54:54.315Z,54.63
2018-03-16T13:55:59.080Z,55.72
2018-03-16T13:57:04.067Z,57.57
2018-03-16T13:58:08.903Z,60.42
2018-03-16T13:59:14.805Z,63.80
2018-03-16T14:00:19.637Z,62.05
2018-03-16T14:01:24.360Z,66.17
2018-03-16T14:02:29.070Z,69.87
2018-03-16T14:03:33.980Z,71.95
2018-03-16T14:04:38.858Z,65.20
2018-03-16T14:05:43.579Z,73.60
2018-03-16T14:06:48.353Z,70.97
2018-03-16T14:07:53.071Z,69.60
2018-03-16T14:08:59.570Z,70.85
2018-03-16T14:10:05.073Z,72.70
2018-03-16T14:11:13.510Z,72.22
2018-03-16T14:12:18.561Z,72.47
2018-03-16T14:13:23.297Z,72.45